| time (UTC) | temp C | wind direction | speed KPH | gust KPH | rain 1hr cm | rain 24hr cm | rain mn cm | humidity % | barometer mb |
| 20260504221208 | 27 | 104 | 9.7 | 11.3 | 0.00 | 0.00 | 0.00 | 60 | 1014.0 |
| 20260504220707 | 27 | 101 | 9.7 | 14.5 | 0.00 | 0.00 | 0.00 | 60 | 1014.0 |
| 20260504220208 | 27 | 120 | 9.7 | 12.9 | 0.00 | 0.00 | 0.00 | 60 | 1014.0 |
| 20260504215708 | 27 | 99 | 9.7 | 12.9 | 0.00 | 0.00 | 0.00 | 60 | 1014.0 |
| 20260504215208 | 27 | 66 | 11.3 | 16.1 | 0.00 | 0.00 | 0.00 | 57 | 1014.0 |
| 20260504214708 | 27 | 68 | 6.4 | 9.7 | 0.00 | 0.00 | 0.00 | 56 | 1014.0 |
| 20260504214209 | 27 | 37 | 9.7 | 11.3 | 0.00 | 0.00 | 0.00 | 58 | 1014.0 |
| 20260504213707 | 27 | 84 | 11.3 | 16.1 | 0.00 | 0.00 | 0.00 | 57 | 1014.0 |
| 20260504213207 | 27 | 98 | 17.7 | 20.9 | 0.00 | 0.00 | 0.00 | 59 | 1014.0 |
| 20260504212708 | 27 | 102 | 16.1 | 22.5 | 0.00 | 0.00 | 0.00 | 58 | 1014.0 |
| 20260504212210 | 28 | 137 | 11.3 | 17.7 | 0.00 | 0.00 | 0.00 | 56 | 1014.0 |
| 20260504211708 | 28 | 80 | 14.5 | 17.7 | 0.00 | 0.00 | 0.00 | 56 | 1014.0 |
| 20260504211213 | 28 | 54 | 11.3 | 16.1 | 0.00 | 0.00 | 0.00 | 56 | 1014.0 |
| 20260504210710 | 27 | 65 | 8.0 | 11.3 | 0.00 | 0.00 | 0.00 | 54 | 1014.0 |
| 20260504210209 | 27 | 99 | 6.4 | 9.7 | 0.00 | 0.00 | 0.00 | 55 | 1014.0 |
| 20260504205707 | 28 | 98 | 12.9 | 17.7 | 0.00 | 0.00 | 0.00 | 56 | 1014.0 |
| 20260504205209 | 27 | 83 | 6.4 | 12.9 | 0.00 | 0.00 | 0.00 | 56 | 1014.0 |
| 20260504204710 | 27 | 112 | 6.4 | 8.0 | 0.00 | 0.00 | 0.00 | 54 | 1014.0 |
| 20260504204207 | 27 | 111 | 8.0 | 9.7 | 0.00 | 0.00 | 0.00 | 57 | 1014.0 |
| 20260504203706 | 27 | 52 | 9.7 | 11.3 | 0.00 | 0.00 | 0.00 | 54 | 1014.0 |
| 20260504203210 | 27 | 58 | 12.9 | 20.9 | 0.00 | 0.00 | 0.00 | 54 | 1014.0 |
| 20260504202709 | 27 | 42 | 9.7 | 12.9 | 0.00 | 0.00 | 0.00 | 54 | 1014.0 |
| 20260504202209 | 27 | 21 | 9.7 | 12.9 | 0.00 | 0.00 | 0.00 | 54 | 1014.0 |
| 20260504201706 | 27 | 96 | 11.3 | 16.1 | 0.00 | 0.00 | 0.00 | 56 | 1014.0 |
| 20260504201207 | 27 | 108 | 11.3 | 14.5 | 0.00 | 0.00 | 0.00 | 57 | 1014.0 |
| 20260504200707 | 27 | 97 | 19.3 | 24.1 | 0.00 | 0.00 | 0.00 | 54 | 1014.0 |
| 20260504200206 | 27 | 59 | 6.4 | 9.7 | 0.00 | 0.00 | 0.00 | 55 | 1015.0 |
| 20260504195708 | 27 | 73 | 8.0 | 9.7 | 0.00 | 0.00 | 0.00 | 57 | 1014.0 |
| 20260504195207 | 27 | 92 | 12.9 | 14.5 | 0.00 | 0.00 | 0.00 | 58 | 1014.0 |
| 20260504194711 | 27 | 79 | 12.9 | 16.1 | 0.00 | 0.00 | 0.00 | 58 | 1014.0 |
| 20260504194214 | 27 | 122 | 16.1 | 20.9 | 0.00 | 0.00 | 0.00 | 55 | 1015.0 |
| 20260504193708 | 27 | 80 | 11.3 | 17.7 | 0.00 | 0.00 | 0.00 | 54 | 1015.0 |
| 20260504193207 | 27 | 102 | 14.5 | 22.5 | 0.00 | 0.00 | 0.00 | 56 | 1015.0 |
| 20260504192707 | 28 | 101 | 8.0 | 14.5 | 0.00 | 0.00 | 0.00 | 53 | 1015.0 |
| 20260504192209 | 27 | 105 | 4.8 | 11.3 | 0.00 | 0.00 | 0.00 | 54 | 1015.0 |
| 20260504191711 | 27 | 119 | 14.5 | 20.9 | 0.00 | 0.00 | 0.00 | 54 | 1015.0 |
| 20260504191210 | 27 | 52 | 11.3 | 14.5 | 0.00 | 0.00 | 0.00 | 53 | 1015.0 |
| 20260504190707 | 27 | 106 | 12.9 | 19.3 | 0.00 | 0.00 | 0.00 | 55 | 1015.0 |
| 20260504190209 | 27 | 121 | 9.7 | 14.5 | 0.00 | 0.00 | 0.00 | 53 | 1015.0 |
| 20260504185707 | 27 | 110 | 8.0 | 11.3 | 0.00 | 0.00 | 0.00 | 55 | 1015.0 |
| 20260504185207 | 27 | 108 | 12.9 | 17.7 | 0.00 | 0.00 | 0.00 | 53 | 1015.0 |
| 20260504184710 | 27 | 53 | 8.0 | 12.9 | 0.00 | 0.00 | 0.00 | 52 | 1015.0 |
| 20260504184211 | 27 | 69 | 9.7 | 12.9 | 0.00 | 0.00 | 0.00 | 53 | 1015.0 |
| 20260504183707 | 27 | 40 | 11.3 | 14.5 | 0.00 | 0.00 | 0.00 | 52 | 1016.0 |
| 20260504183210 | 27 | 104 | 11.3 | 24.1 | 0.00 | 0.00 | 0.00 | 52 | 1016.0 |
| 20260504182708 | 27 | 25 | 9.7 | 14.5 | 0.00 | 0.00 | 0.00 | 52 | 1015.0 |
| 20260504182211 | 28 | 42 | 6.4 | 12.9 | 0.00 | 0.00 | 0.00 | 51 | 1016.0 |
| 20260504181708 | 27 | 122 | 1.6 | 4.8 | 0.00 | 0.00 | 0.00 | 50 | 1016.0 |
| 20260504181211 | 27 | 124 | 6.4 | 11.3 | 0.00 | 0.00 | 0.00 | 52 | 1016.0 |
| 20260504180707 | 27 | 95 | 14.5 | 22.5 | 0.00 | 0.00 | 0.00 | 53 | 1016.0 |
| 20260504180208 | 27 | 76 | 11.3 | 17.7 | 0.00 | 0.00 | 0.00 | 53 | 1016.0 |
| 20260504175707 | 26 | 58 | 12.9 | 20.9 | 0.00 | 0.00 | 0.00 | 53 | 1016.0 |
| 20260504175208 | 27 | 68 | 12.9 | 20.9 | 0.00 | 0.00 | 0.00 | 54 | 1016.0 |
| 20260504174709 | 27 | 70 | 11.3 | 14.5 | 0.00 | 0.00 | 0.00 | 55 | 1016.0 |
| 20260504174219 | 26 | 69 | 11.3 | 14.5 | 0.00 | 0.00 | 0.00 | 53 | 1016.0 |
| 20260504173709 | 26 | 67 | 14.5 | 25.7 | 0.00 | 0.00 | 0.00 | 53 | 1016.0 |
| 20260504173211 | 26 | 54 | 8.0 | 12.9 | 0.00 | 0.00 | 0.00 | 53 | 1016.0 |
| 20260504172709 | 26 | 57 | 11.3 | 19.3 | 0.00 | 0.00 | 0.00 | 54 | 1016.0 |
| 20260504172209 | 27 | 84 | 17.7 | 20.9 | 0.00 | 0.00 | 0.00 | 53 | 1016.0 |
| 20260504171708 | 27 | 81 | 17.7 | 20.9 | 0.00 | 0.00 | 0.00 | 55 | 1016.0 |
| 20260504171208 | 27 | 81 | 17.7 | 20.9 | 0.00 | 0.00 | 0.00 | 55 | 1017.0 |
| 20260504170708 | 27 | 81 | 17.7 | 20.9 | 0.00 | 0.00 | 0.00 | 53 | 1017.0 |
| 20260504170207 | 27 | 85 | 17.7 | 22.5 | 0.00 | 0.00 | 0.00 | 53 | 1017.0 |
| 20260504160207 | 26 | 9 | 11.3 | 19.3 | 0.00 | 0.00 | 0.00 | 51 | 1017.0 |
| 20260504150706 | 25 | 26 | 17.7 | 24.1 | 0.00 | 0.00 | 0.00 | 56 | 1018.0 |
| 20260504150212 | 25 | 40 | 22.5 | 45.1 | 0.00 | 0.00 | 0.00 | 56 | 1018.0 |
| 20260504141209 | 24 | 39 | 17.7 | 24.1 | 0.00 | 0.00 | 0.00 | 64 | 1017.0 |
| 20260504140711 | 23 | 38 | 16.1 | 20.9 | 0.00 | 0.00 | 0.00 | 65 | 1017.0 |
| 20260504140211 | 24 | 41 | 14.5 | 22.5 | 0.00 | 0.00 | 0.00 | 64 | 1017.0 |
| 20260504130708 | 22 | 35 | 11.3 | 14.5 | 0.00 | 0.00 | 0.00 | 70 | 1017.0 |
| 20260504130210 | 22 | 57 | 9.7 | 14.5 | 0.00 | 0.00 | 0.00 | 70 | 1017.0 |
| 20260504120208 | 18 | 65 | 4.8 | 8.0 | 0.00 | 0.00 | 0.00 | 79 | 1017.0 |
| 20260504110707 | 17 | 21 | 4.8 | 6.4 | 0.00 | 0.00 | 0.00 | 85 | 1016.0 |
| 20260504110209 | 17 | 18 | 4.8 | 6.4 | 0.00 | 0.00 | 0.00 | 85 | 1016.0 |
| 20260504100207 | 17 | 26 | 4.8 | 4.8 | 0.00 | 0.00 | 0.00 | 85 | 1015.0 |
| 20260504081711 | 18 | 182 | 1.6 | 1.6 | 0.00 | 0.00 | 0.00 | 82 | 1015.0 |
| 20260504081210 | 18 | 15 | 3.2 | 4.8 | 0.00 | 0.00 | 0.00 | 82 | 1015.0 |
| 20260504080708 | 18 | 28 | 1.6 | 3.2 | 0.00 | 0.00 | 0.00 | 82 | 1015.0 |
| 20260504080207 | 18 | 23 | 0.0 | 0.0 | 0.00 | 0.00 | 0.00 | 82 | 1015.0 |
| 20260504070207 | 18 | 319 | 1.6 | 3.2 | 0.00 | 0.00 | 0.00 | 83 | 1016.0 |
| 20260504060210 | 18 | 14 | 1.6 | 3.2 | 0.00 | 0.00 | 0.00 | 81 | 1016.0 |
| 20260504050706 | 19 | 49 | 4.8 | 6.4 | 0.00 | 0.00 | 0.00 | 82 | 1016.0 |
| 20260504050209 | 19 | 46 | 3.2 | 6.4 | 0.00 | 0.00 | 0.00 | 82 | 1016.0 |
| 20260504045707 | 19 | 45 | 4.8 | 6.4 | 0.00 | 0.00 | 0.00 | 82 | 1016.0 |
| 20260504045208 | 19 | 34 | 4.8 | 6.4 | 0.00 | 0.00 | 0.00 | 82 | 1017.0 |
| 20260504044707 | 19 | 40 | 3.2 | 4.8 | 0.00 | 0.00 | 0.00 | 81 | 1017.0 |
| 20260504044207 | 19 | 28 | 3.2 | 4.8 | 0.00 | 0.00 | 0.00 | 81 | 1017.0 |
| 20260504043707 | 19 | 24 | 3.2 | 6.4 | 0.00 | 0.00 | 0.00 | 81 | 1017.0 |
| 20260504043207 | 20 | 32 | 3.2 | 6.4 | 0.00 | 0.00 | 0.00 | 81 | 1017.0 |
| 20260504042706 | 20 | 335 | 0.0 | 1.6 | 0.00 | 0.00 | 0.00 | 80 | 1017.0 |
| 20260504042208 | 20 | 234 | 0.0 | 0.0 | 0.00 | 0.00 | 0.00 | 80 | 1017.0 |
| 20260504041709 | 20 | 42 | 0.0 | 1.6 | 0.00 | 0.00 | 0.00 | 80 | 1017.0 |
| 20260504041206 | 20 | 359 | 1.6 | 3.2 | 0.00 | 0.00 | 0.00 | 79 | 1017.0 |
| 20260504040706 | 20 | 13 | 3.2 | 4.8 | 0.00 | 0.00 | 0.00 | 79 | 1017.0 |
| 20260504040207 | 20 | 16 | 1.6 | 3.2 | 0.00 | 0.00 | 0.00 | 79 | 1017.0 |
| 20260504035706 | 20 | 22 | 3.2 | 3.2 | 0.00 | 0.00 | 0.10 | 79 | 1017.0 |
| 20260504035206 | 20 | 26 | 1.6 | 3.2 | 0.00 | 0.00 | 0.10 | 79 | 1017.0 |
| 20260504034706 | 20 | 27 | 3.2 | 3.2 | 0.00 | 0.00 | 0.10 | 78 | 1017.0 |
| 20260504034206 | 20 | 42 | 3.2 | 4.8 | 0.00 | 0.00 | 0.10 | 79 | 1017.0 |
| 20260504033706 | 20 | 29 | 3.2 | 6.4 | 0.00 | 0.00 | 0.10 | 78 | 1017.0 |
| 20260504033206 | 20 | 47 | 3.2 | 4.8 | 0.00 | 0.00 | 0.10 | 78 | 1017.0 |
| 20260504032706 | 20 | 49 | 4.8 | 4.8 | 0.00 | 0.00 | 0.10 | 78 | 1017.0 |
| 20260504032208 | 20 | 49 | 3.2 | 6.4 | 0.00 | 0.00 | 0.10 | 78 | 1017.0 |
| 20260504031224 | 20 | 70 | 3.2 | 4.8 | 0.00 | 0.00 | 0.10 | 78 | 1017.0 |
| 20260504030706 | 20 | 47 | 4.8 | 6.4 | 0.00 | 0.00 | 0.10 | 78 | 1017.0 |
| 20260504030209 | 21 | 68 | 4.8 | 6.4 | 0.00 | 0.00 | 0.10 | 78 | 1017.0 |
| 20260504025707 | 21 | 51 | 4.8 | 6.4 | 0.00 | 0.00 | 0.10 | 77 | 1017.0 |
| 20260504025206 | 21 | 42 | 4.8 | 6.4 | 0.00 | 0.00 | 0.10 | 77 | 1017.0 |
| 20260504024707 | 21 | 79 | 6.4 | 9.7 | 0.00 | 0.00 | 0.10 | 77 | 1017.0 |
| 20260504024206 | 21 | 60 | 6.4 | 9.7 | 0.00 | 0.00 | 0.10 | 77 | 1017.0 |
| 20260504023706 | 21 | 56 | 3.2 | 4.8 | 0.00 | 0.00 | 0.10 | 77 | 1017.0 |
| 20260504023207 | 21 | 75 | 6.4 | 8.0 | 0.00 | 0.00 | 0.10 | 77 | 1017.0 |
| 20260504022706 | 21 | 58 | 6.4 | 8.0 | 0.00 | 0.00 | 0.10 | 76 | 1017.0 |
| 20260504022208 | 21 | 54 | 4.8 | 6.4 | 0.00 | 0.00 | 0.10 | 76 | 1017.0 |
| 20260504021706 | 21 | 68 | 6.4 | 11.3 | 0.00 | 0.00 | 0.10 | 76 | 1017.0 |
| 20260504021207 | 21 | 79 | 9.7 | 12.9 | 0.00 | 0.00 | 0.10 | 76 | 1017.0 |
| 20260504020706 | 21 | 75 | 11.3 | 12.9 | 0.00 | 0.00 | 0.10 | 75 | 1017.0 |
| 20260504020207 | 21 | 77 | 9.7 | 11.3 | 0.00 | 0.00 | 0.10 | 76 | 1017.0 |
| 20260504015706 | 21 | 78 | 11.3 | 12.9 | 0.00 | 0.00 | 0.10 | 76 | 1016.0 |
| 20260504015207 | 21 | 77 | 9.7 | 12.9 | 0.00 | 0.00 | 0.10 | 76 | 1016.0 |
| 20260504014707 | 21 | 81 | 9.7 | 11.3 | 0.00 | 0.00 | 0.10 | 75 | 1017.0 |
| 20260504014206 | 21 | 76 | 9.7 | 11.3 | 0.00 | 0.00 | 0.10 | 75 | 1016.0 |
| 20260504013706 | 21 | 77 | 11.3 | 12.9 | 0.00 | 0.00 | 0.10 | 75 | 1016.0 |
| 20260504013207 | 21 | 74 | 6.4 | 9.7 | 0.00 | 0.00 | 0.10 | 75 | 1016.0 |
| 20260504012707 | 21 | 68 | 9.7 | 11.3 | 0.00 | 0.00 | 0.10 | 75 | 1016.0 |
| 20260504012206 | 22 | 67 | 8.0 | 11.3 | 0.00 | 0.00 | 0.10 | 75 | 1016.0 |
| 20260504011706 | 22 | 61 | 8.0 | 9.7 | 0.00 | 0.00 | 0.10 | 75 | 1016.0 |
| 20260504011207 | 22 | 85 | 6.4 | 11.3 | 0.00 | 0.00 | 0.10 | 75 | 1016.0 |
| 20260504010706 | 22 | 76 | 8.0 | 9.7 | 0.00 | 0.00 | 0.10 | 75 | 1016.0 |
| 20260504010208 | 22 | 82 | 6.4 | 8.0 | 0.00 | 0.00 | 0.10 | 75 | 1016.0 |
| 20260504005707 | 22 | 63 | 8.0 | 12.9 | 0.00 | 0.00 | 0.10 | 75 | 1016.0 |
| 20260504005206 | 22 | 57 | 6.4 | 8.0 | 0.00 | 0.00 | 0.10 | 74 | 1016.0 |
| 20260504004706 | 22 | 53 | 6.4 | 12.9 | 0.00 | 0.00 | 0.10 | 74 | 1016.0 |
| 20260504004206 | 22 | 56 | 9.7 | 12.9 | 0.00 | 0.00 | 0.10 | 74 | 1016.0 |
| 20260504003707 | 22 | 41 | 9.7 | 14.5 | 0.00 | 0.00 | 0.10 | 73 | 1016.0 |
| 20260504003207 | 22 | 40 | 9.7 | 12.9 | 0.00 | 0.00 | 0.10 | 74 | 1016.0 |
| 20260504002706 | 22 | 40 | 11.3 | 14.5 | 0.00 | 0.00 | 0.10 | 73 | 1015.0 |
| 20260504002206 | 23 | 18 | 8.0 | 12.9 | 0.00 | 0.00 | 0.10 | 73 | 1015.0 |
| 20260504001707 | 23 | 0 | 11.3 | 19.3 | 0.00 | 0.00 | 0.10 | 72 | 1015.0 |
| 20260504001206 | 23 | 345 | 14.5 | 24.1 | 0.00 | 0.00 | 0.10 | 72 | 1015.0 |
| 20260504000707 | 23 | 0 | 9.7 | 14.5 | 0.00 | 0.00 | 0.10 | 72 | 1015.0 |
| 20260504000206 | 23 | 0 | 14.5 | 29.0 | 0.00 | 0.00 | 0.10 | 71 | 1015.0 |
| 20260503235706 | 23 | 48 | 11.3 | 20.9 | 0.00 | 0.00 | 0.10 | 71 | 1015.0 |
| 20260503235206 | 23 | 57 | 9.7 | 12.9 | 0.00 | 0.00 | 0.10 | 69 | 1015.0 |
| 20260503234707 | 23 | 70 | 12.9 | 16.1 | 0.00 | 0.00 | 0.10 | 69 | 1015.0 |
| 20260503234210 | 23 | 63 | 9.7 | 14.5 | 0.00 | 0.00 | 0.10 | 69 | 1015.0 |
| 20260503233706 | 23 | 93 | 20.9 | 30.6 | 0.00 | 0.00 | 0.10 | 68 | 1015.0 |
| 20260503233207 | 24 | 89 | 19.3 | 29.0 | 0.00 | 0.00 | 0.10 | 68 | 1015.0 |
| 20260503232707 | 24 | 98 | 20.9 | 25.7 | 0.00 | 0.00 | 0.10 | 67 | 1015.0 |
| 20260503232207 | 24 | 90 | 19.3 | 27.4 | 0.00 | 0.00 | 0.10 | 67 | 1015.0 |
| 20260503231706 | 24 | 96 | 17.7 | 27.4 | 0.00 | 0.00 | 0.10 | 67 | 1015.0 |
| 20260503231209 | 24 | 99 | 27.4 | 37.0 | 0.00 | 0.00 | 0.10 | 66 | 1015.0 |
| 20260503230706 | 24 | 97 | 20.9 | 35.4 | 0.00 | 0.00 | 0.10 | 67 | 1015.0 |
| 20260503230206 | 25 | 100 | 20.9 | 30.6 | 0.00 | 0.00 | 0.10 | 67 | 1015.0 |
| 20260503225707 | 25 | 109 | 19.3 | 27.4 | 0.00 | 0.00 | 0.10 | 67 | 1015.0 |
| 20260503225206 | 25 | 106 | 14.5 | 17.7 | 0.00 | 0.00 | 0.10 | 66 | 1015.0 |
| 20260503224706 | 25 | 88 | 14.5 | 20.9 | 0.00 | 0.00 | 0.10 | 65 | 1015.0 |
| 20260503224206 | 25 | 74 | 14.5 | 17.7 | 0.00 | 0.00 | 0.10 | 66 | 1015.0 |
| 20260503223706 | 25 | 66 | 16.1 | 20.9 | 0.00 | 0.00 | 0.10 | 66 | 1015.0 |
| 20260503223206 | 25 | 69 | 14.5 | 20.9 | 0.00 | 0.00 | 0.10 | 65 | 1015.0 |
| 20260503222706 | 25 | 76 | 11.3 | 14.5 | 0.00 | 0.00 | 0.10 | 65 | 1015.0 |
| 20260503222206 | 25 | 86 | 12.9 | 16.1 | 0.00 | 0.00 | 0.10 | 65 | 1015.0 |
| 20260503221706 | 25 | 92 | 12.9 | 16.1 | 0.00 | 0.00 | 0.10 | 65 | 1015.0 |